createdAt,value
2018-12-06T00:00:05.907Z,10.90
2018-12-06T00:02:34.183Z,18.73
2018-12-06T00:05:02.399Z,22.03
2018-12-06T00:07:30.813Z,11.40
2018-12-06T00:09:59.161Z,8.53
2018-12-06T00:12:27.487Z,18.70
2018-12-06T00:15:07.142Z,14.73
2018-12-06T00:17:35.441Z,21.33
2018-12-06T00:20:04.237Z,14.80
2018-12-06T00:22:32.490Z,15.90
2018-12-06T00:25:00.791Z,10.10
2018-12-06T00:27:29.189Z,14.20
2018-12-06T00:30:08.829Z,15.37
2018-12-06T00:32:37.107Z,8.33
2018-12-06T00:35:05.534Z,13.23
2018-12-06T00:37:33.915Z,11.73
2018-12-06T00:40:02.393Z,10.17
2018-12-06T00:42:30.723Z,12.53
2018-12-06T00:45:01.881Z,12.40
2018-12-06T00:47:30.254Z,11.70
2018-12-06T00:49:58.612Z,10.53
2018-12-06T00:52:26.883Z,10.73
2018-12-06T00:54:55.166Z,10.00
2018-12-06T00:57:23.597Z,12.07
2018-12-06T00:59:51.972Z,17.17
2018-12-06T01:02:20.311Z,17.93
2018-12-06T01:04:48.598Z,15.10
2018-12-06T01:07:17.021Z,8.83
2018-12-06T01:09:45.363Z,13.27
2018-12-06T01:12:13.755Z,12.13
2018-12-06T01:14:42.141Z,11.53
2018-12-06T01:17:10.517Z,14.40
2018-12-06T01:19:38.816Z,16.20
2018-12-06T01:22:07.107Z,11.13
2018-12-06T01:24:35.409Z,18.30
2018-12-06T01:27:03.721Z,13.90
2018-12-06T01:29:32.063Z,17.03
2018-12-06T01:32:00.350Z,14.63
2018-12-06T01:34:28.595Z,13.48
2018-12-06T01:36:56.866Z,9.93
2018-12-06T01:39:25.271Z,10.73
2018-12-06T01:41:53.625Z,11.70
2018-12-06T01:44:21.906Z,12.37
2018-12-06T01:46:50.202Z,13.17
2018-12-06T01:49:18.477Z,13.10
2018-12-06T01:51:46.813Z,8.17
2018-12-06T01:54:15.273Z,16.17
2018-12-06T01:56:43.523Z,12.77
2018-12-06T01:59:11.833Z,12.07
2018-12-06T02:01:40.181Z,14.13
2018-12-06T02:04:08.563Z,17.67
2018-12-06T02:06:36.851Z,19.57
2018-12-06T02:09:07.755Z,11.93
2018-12-06T02:11:36.079Z,12.17
2018-12-06T02:14:04.653Z,8.93
2018-12-06T02:16:33.010Z,12.13
2018-12-06T02:19:01.295Z,12.63
2018-12-06T02:21:29.681Z,13.20
2018-12-06T02:23:57.901Z,11.87
2018-12-06T02:26:26.137Z,9.13
2018-12-06T02:28:54.419Z,15.23
2018-12-06T02:31:22.724Z,12.97
2018-12-06T02:33:50.973Z,13.33
2018-12-06T02:36:19.191Z,15.60
2018-12-06T02:38:47.412Z,16.23
2018-12-06T02:41:15.629Z,13.20
2018-12-06T02:43:44.024Z,9.73
2018-12-06T02:46:12.291Z,10.23
2018-12-06T02:48:40.773Z,12.57
2018-12-06T02:51:08.926Z,9.60
2018-12-06T02:53:37.217Z,20.20
2018-12-06T02:56:05.497Z,12.97
2018-12-06T02:58:33.760Z,11.23
2018-12-06T03:01:01.954Z,12.00
2018-12-06T03:03:30.303Z,13.77
2018-12-06T03:05:58.469Z,12.50
2018-12-06T03:08:26.681Z,11.27
2018-12-06T03:10:54.872Z,16.77
2018-12-06T03:13:23.058Z,9.83
2018-12-06T03:15:51.327Z,8.60
2018-12-06T03:18:19.660Z,10.83
2018-12-06T03:20:47.793Z,6.27
2018-12-06T03:23:15.949Z,11.83
2018-12-06T03:25:44.222Z,11.20
2018-12-06T03:28:12.444Z,11.20
2018-12-06T03:30:40.734Z,15.00
2018-12-06T03:33:09.076Z,9.80
2018-12-06T03:35:37.448Z,9.03
2018-12-06T03:38:06.454Z,8.10
2018-12-06T03:40:34.791Z,13.53
2018-12-06T03:43:02.922Z,7.67
2018-12-06T03:45:31.146Z,10.67
2018-12-06T03:47:59.395Z,12.23
2018-12-06T03:50:27.580Z,9.40
2018-12-06T03:52:55.742Z,12.33
2018-12-06T03:55:24.005Z,20.00
2018-12-06T03:57:52.244Z,12.37
2018-12-06T04:00:20.526Z,8.50
2018-12-06T04:02:48.712Z,9.10
2018-12-06T04:05:17.006Z,16.53
2018-12-06T04:07:45.282Z,9.67
2018-12-06T04:10:13.589Z,7.57
2018-12-06T04:12:41.757Z,10.30
2018-12-06T04:15:10.049Z,6.77
2018-12-06T04:17:38.316Z,7.60
2018-12-06T04:20:06.553Z,7.20
2018-12-06T04:22:34.770Z,19.90
2018-12-06T04:25:04.293Z,8.93
2018-12-06T04:27:32.681Z,8.90
2018-12-06T04:30:00.881Z,13.07
2018-12-06T04:32:29.174Z,8.20
2018-12-06T04:34:57.417Z,10.07
2018-12-06T04:37:25.692Z,12.63
2018-12-06T04:39:53.864Z,10.83
2018-12-06T04:42:22.127Z,10.90
2018-12-06T04:44:50.277Z,9.70
2018-12-06T04:47:18.516Z,13.53
2018-12-06T04:49:46.873Z,12.77
2018-12-06T04:52:15.111Z,10.33
2018-12-06T04:54:43.295Z,9.60
2018-12-06T04:57:11.602Z,12.20
2018-12-06T04:59:39.876Z,6.60
2018-12-06T05:02:08.230Z,8.60
2018-12-06T05:04:36.406Z,10.53
2018-12-06T05:07:04.728Z,8.43
2018-12-06T05:09:32.942Z,7.57
2018-12-06T05:12:01.193Z,9.37
2018-12-06T05:14:29.487Z,8.20
2018-12-06T05:16:57.616Z,8.53
2018-12-06T05:19:25.860Z,5.83
2018-12-06T05:21:54.056Z,12.73
2018-12-06T05:24:22.214Z,7.57
2018-12-06T05:26:50.456Z,11.10
2018-12-06T05:29:18.664Z,11.50
2018-12-06T05:31:46.945Z,6.93
2018-12-06T05:34:15.186Z,15.17
2018-12-06T05:36:43.344Z,7.63
2018-12-06T05:39:11.614Z,6.33
2018-12-06T05:41:39.831Z,7.23
2018-12-06T05:44:08.202Z,7.87
2018-12-06T05:46:36.547Z,8.80
2018-12-06T05:49:04.891Z,6.97
2018-12-06T05:51:33.124Z,8.63
2018-12-06T05:54:01.348Z,8.43
2018-12-06T05:56:29.576Z,10.40
2018-12-06T05:58:57.750Z,9.73
2018-12-06T06:01:25.987Z,11.60
2018-12-06T06:03:54.268Z,8.23
2018-12-06T06:06:22.967Z,7.60
2018-12-06T06:08:51.113Z,7.90
2018-12-06T06:11:19.380Z,7.97
2018-12-06T06:13:47.720Z,7.83
2018-12-06T06:16:15.976Z,12.33
2018-12-06T06:18:44.242Z,8.40
2018-12-06T06:21:12.400Z,5.80
2018-12-06T06:23:40.740Z,10.40
2018-12-06T06:26:09.133Z,10.80
2018-12-06T06:28:37.331Z,7.43
2018-12-06T06:31:36.674Z,9.13
2018-12-06T06:34:04.892Z,7.80
2018-12-06T06:36:33.077Z,5.83
2018-12-06T06:39:07.036Z,6.10
2018-12-06T06:41:35.464Z,9.73
2018-12-06T06:44:03.807Z,7.70
2018-12-06T06:46:32.166Z,8.90
2018-12-06T06:49:00.376Z,10.60
2018-12-06T06:51:28.563Z,8.67
2018-12-06T06:53:56.846Z,8.73
2018-12-06T06:56:25.103Z,5.80
2018-12-06T06:58:53.430Z,5.63
2018-12-06T07:01:21.762Z,7.93
2018-12-06T07:03:50.126Z,7.50
2018-12-06T07:06:18.377Z,8.53
2018-12-06T07:08:46.637Z,10.87
2018-12-06T07:11:14.946Z,9.63
2018-12-06T07:13:43.316Z,8.97
2018-12-06T07:16:11.666Z,8.27
2018-12-06T07:18:39.935Z,7.70
2018-12-06T07:21:08.668Z,9.30
2018-12-06T07:23:36.942Z,6.20
2018-12-06T07:26:06.201Z,9.67
2018-12-06T07:28:34.480Z,9.20
2018-12-06T07:31:02.813Z,7.83
2018-12-06T07:33:31.071Z,6.67
2018-12-06T07:36:00.481Z,9.30
2018-12-06T07:38:28.812Z,9.60
2018-12-06T07:40:57.250Z,7.77
2018-12-06T07:43:25.534Z,8.80
2018-12-06T07:45:58.129Z,6.90
2018-12-06T07:48:26.459Z,7.07
2018-12-06T07:50:54.830Z,10.10
2018-12-06T07:53:23.038Z,5.93
2018-12-06T07:55:52.629Z,7.80
2018-12-06T07:58:25.411Z,8.50
2018-12-06T08:00:54.591Z,8.03
2018-12-06T08:03:26.206Z,10.00
2018-12-06T08:05:54.467Z,6.40
2018-12-06T08:08:26.999Z,9.60
2018-12-06T08:10:55.443Z,6.70
2018-12-06T08:13:23.874Z,6.30
2018-12-06T08:15:52.419Z,9.63
2018-12-06T08:18:20.869Z,5.90
2018-12-06T08:20:49.273Z,6.70
2018-12-06T08:23:17.709Z,7.10
2018-12-06T08:25:46.001Z,7.83
2018-12-06T08:28:14.327Z,7.00
2018-12-06T08:30:42.653Z,8.20
2018-12-06T08:33:11.097Z,7.90
2018-12-06T08:35:39.559Z,8.50
2018-12-06T08:38:07.935Z,7.40
2018-12-06T08:40:37.161Z,8.27
2018-12-06T08:43:10.711Z,10.77
2018-12-06T08:45:38.903Z,10.40
2018-12-06T08:48:07.387Z,7.53
2018-12-06T08:50:35.814Z,9.00
2018-12-06T08:53:04.079Z,6.30
2018-12-06T08:55:32.419Z,5.70
2018-12-06T08:58:00.893Z,5.07
2018-12-06T09:00:29.375Z,14.60
2018-12-06T09:02:57.735Z,10.37
2018-12-06T09:05:26.067Z,6.80
2018-12-06T09:07:56.088Z,9.50
2018-12-06T09:10:24.720Z,6.30
2018-12-06T09:12:52.981Z,5.90
2018-12-06T09:15:21.998Z,4.47
2018-12-06T09:17:53.879Z,6.70
2018-12-06T09:20:22.117Z,6.50
2018-12-06T09:22:50.431Z,6.90
2018-12-06T09:25:21.325Z,7.60
2018-12-06T09:27:49.384Z,7.63
2018-12-06T09:30:18.337Z,5.70
2018-12-06T09:32:46.569Z,6.97
2018-12-06T09:35:18.935Z,7.63
2018-12-06T09:37:47.165Z,6.83
2018-12-06T09:40:15.489Z,8.13
2018-12-06T09:42:43.812Z,8.63
2018-12-06T09:45:12.249Z,11.40
2018-12-06T09:47:40.562Z,7.70
2018-12-06T09:50:08.982Z,7.27
2018-12-06T09:52:37.259Z,8.77
2018-12-06T09:55:05.579Z,11.67
2018-12-06T09:57:33.911Z,11.37
2018-12-06T10:00:02.388Z,6.07
2018-12-06T10:02:31.422Z,4.73
2018-12-06T10:04:59.784Z,6.73
2018-12-06T10:07:28.108Z,4.90
2018-12-06T10:09:56.450Z,7.10
2018-12-06T10:12:24.877Z,7.03
2018-12-06T10:14:53.344Z,5.70
2018-12-06T10:17:21.866Z,12.37
2018-12-06T10:19:54.065Z,5.27
2018-12-06T10:22:22.531Z,5.07
2018-12-06T10:24:55.231Z,4.97
2018-12-06T10:27:23.914Z,4.73
2018-12-06T10:29:52.648Z,4.93
2018-12-06T10:32:22.548Z,7.30
2018-12-06T10:34:54.862Z,6.27
2018-12-06T10:37:23.494Z,5.37
2018-12-06T10:39:56.275Z,7.83
2018-12-06T10:42:24.488Z,8.93
2018-12-06T10:44:53.614Z,11.03
2018-12-06T10:47:21.932Z,8.10
2018-12-06T10:49:50.312Z,11.17
2018-12-06T10:52:18.983Z,5.40
2018-12-06T10:54:47.442Z,6.43
2018-12-06T10:57:15.918Z,6.57
2018-12-06T10:59:44.275Z,5.97
2018-12-06T11:02:17.958Z,8.03
2018-12-06T11:04:46.245Z,8.10
2018-12-06T11:07:14.750Z,7.40
2018-12-06T11:09:43.097Z,12.50
2018-12-06T11:12:11.458Z,7.80
2018-12-06T11:14:39.791Z,12.47
2018-12-06T11:17:13.035Z,8.10
2018-12-06T11:19:41.305Z,10.53
2018-12-06T11:22:11.197Z,9.27
2018-12-06T11:24:39.607Z,8.07
2018-12-06T11:27:07.883Z,14.73
2018-12-06T11:29:36.127Z,9.03
2018-12-06T11:32:05.194Z,7.90
2018-12-06T11:34:33.572Z,13.73
2018-12-06T11:37:01.871Z,9.20
2018-12-06T11:39:30.220Z,6.30
2018-12-06T11:41:58.563Z,10.90
2018-12-06T11:44:26.775Z,11.40
2018-12-06T11:46:55.174Z,8.53
2018-12-06T11:49:23.473Z,8.97
2018-12-06T11:51:51.815Z,11.00
2018-12-06T11:54:20.028Z,9.73
2018-12-06T11:56:49.390Z,13.03
2018-12-06T11:59:22.928Z,9.57
2018-12-06T12:01:51.462Z,8.80
2018-12-06T12:04:20.889Z,8.33
2018-12-06T12:06:49.286Z,10.20
2018-12-06T12:09:17.560Z,7.67
2018-12-06T12:11:45.909Z,15.80
2018-12-06T12:14:14.272Z,9.17
2018-12-06T12:16:42.510Z,11.63
2018-12-06T12:19:10.766Z,5.93
2018-12-06T12:21:39.030Z,6.33
2018-12-06T12:24:07.276Z,12.80
2018-12-06T12:26:35.730Z,8.23
2018-12-06T12:29:04.136Z,9.27
2018-12-06T12:31:32.519Z,7.37
2018-12-06T12:34:00.868Z,7.93
2018-12-06T12:36:31.067Z,8.00
2018-12-06T12:38:59.312Z,12.23
2018-12-06T12:41:28.863Z,7.50
2018-12-06T12:43:57.090Z,9.20
2018-12-06T12:46:27.446Z,9.33
2018-12-06T12:48:55.786Z,8.23
2018-12-06T12:51:24.200Z,9.87
2018-12-06T12:53:52.612Z,7.80
2018-12-06T12:56:20.893Z,9.73
2018-12-06T12:58:49.196Z,6.73
2018-12-06T13:01:17.468Z,9.93
2018-12-06T13:03:45.704Z,7.97
2018-12-06T13:06:14.318Z,8.33
2018-12-06T13:08:42.514Z,9.37
2018-12-06T13:11:10.988Z,12.33
2018-12-06T13:13:40.213Z,7.33
2018-12-06T13:16:08.546Z,9.60
2018-12-06T13:18:36.800Z,11.20
2018-12-06T13:21:05.992Z,8.40
2018-12-06T13:23:34.241Z,13.40
2018-12-06T13:26:02.650Z,10.73
2018-12-06T13:28:30.830Z,9.67
2018-12-06T13:30:59.181Z,9.63
2018-12-06T13:33:27.506Z,7.20
2018-12-06T13:35:56.087Z,11.33
2018-12-06T13:38:24.306Z,8.83
2018-12-06T13:40:52.572Z,9.60
2018-12-06T13:43:20.972Z,7.90
2018-12-06T13:45:49.340Z,7.67
2018-12-06T13:48:17.683Z,11.10
2018-12-06T13:50:46.089Z,10.10
2018-12-06T13:53:14.320Z,10.80
2018-12-06T13:55:42.570Z,7.60
2018-12-06T13:58:10.939Z,7.23
2018-12-06T14:00:39.496Z,9.80
2018-12-06T14:03:08.043Z,10.50
2018-12-06T14:05:36.334Z,10.60
2018-12-06T14:08:04.576Z,14.00
2018-12-06T14:10:32.950Z,10.73
2018-12-06T14:13:01.355Z,9.83
2018-12-06T14:15:29.636Z,9.70
2018-12-06T14:17:58.384Z,15.17
2018-12-06T14:20:28.208Z,14.10
2018-12-06T14:22:56.560Z,14.27
2018-12-06T14:25:24.807Z,10.13
2018-12-06T14:27:53.078Z,12.43
2018-12-06T14:30:21.675Z,14.70
2018-12-06T14:32:50.025Z,14.23
2018-12-06T14:35:18.485Z,9.73
2018-12-06T14:37:46.685Z,14.37
2018-12-06T14:40:14.917Z,16.03
2018-12-06T14:42:43.358Z,17.70
2018-12-06T14:45:12.091Z,11.30
2018-12-06T14:47:40.317Z,12.80
2018-12-06T14:50:08.725Z,9.13
2018-12-06T14:52:36.921Z,12.13
2018-12-06T14:55:05.561Z,10.10
2018-12-06T14:57:33.918Z,13.20
2018-12-06T15:00:07.801Z,12.47
2018-12-06T15:02:36.240Z,9.23
2018-12-06T15:05:05.992Z,14.37
2018-12-06T15:07:34.204Z,11.53
2018-12-06T15:10:02.543Z,16.23
2018-12-06T15:12:30.788Z,12.30
2018-12-06T15:14:58.992Z,8.50
2018-12-06T15:17:27.236Z,17.50
2018-12-06T15:19:55.682Z,11.87
2018-12-06T15:22:23.924Z,11.23
2018-12-06T15:24:52.802Z,10.13
2018-12-06T15:27:21.475Z,11.10
2018-12-06T15:29:50.195Z,12.23
2018-12-06T15:32:18.916Z,17.13
2018-12-06T15:34:47.121Z,12.83
2018-12-06T15:37:21.474Z,8.40
2018-12-06T15:39:49.829Z,11.30
2018-12-06T15:42:18.200Z,15.80
2018-12-06T15:44:46.486Z,12.60
2018-12-06T15:47:15.140Z,14.53
2018-12-06T15:49:43.457Z,12.63
2018-12-06T15:52:11.676Z,16.80
2018-12-06T15:54:40.008Z,14.67
2018-12-06T15:57:08.251Z,16.60
2018-12-06T15:59:36.708Z,17.80
2018-12-06T16:02:05.054Z,15.50
2018-12-06T16:04:33.265Z,19.10
2018-12-06T16:07:01.524Z,18.67
2018-12-06T16:09:29.814Z,20.03
2018-12-06T16:11:58.165Z,25.40
2018-12-06T16:14:28.569Z,21.37
2018-12-06T16:16:56.988Z,22.97
2018-12-06T16:19:25.278Z,24.43
2018-12-06T16:21:54.817Z,28.53
2018-12-06T16:24:24.609Z,26.53
2018-12-06T16:26:53.331Z,29.37
2018-12-06T16:29:21.555Z,24.40
2018-12-06T16:31:50.057Z,25.00
2018-12-06T16:34:18.675Z,25.90
2018-12-06T16:36:46.883Z,26.97
2018-12-06T16:39:16.155Z,24.40
2018-12-06T16:41:44.993Z,26.83
2018-12-06T16:44:13.244Z,28.63
2018-12-06T16:46:41.644Z,26.10
2018-12-06T16:49:10.475Z,30.60
2018-12-06T16:51:39.002Z,34.40
2018-12-06T16:54:07.279Z,27.33
2018-12-06T16:56:35.587Z,29.03
2018-12-06T16:59:03.991Z,34.73
2018-12-06T17:01:32.266Z,32.37
2018-12-06T17:04:00.520Z,30.33
2018-12-06T17:06:28.796Z,33.80
2018-12-06T17:08:57.108Z,31.73
2018-12-06T17:11:25.485Z,35.33
2018-12-06T17:13:53.722Z,33.20
2018-12-06T17:18:57.042Z,33.63
2018-12-06T17:21:25.418Z,32.90
2018-12-06T17:23:53.738Z,35.23
2018-12-06T17:26:22.032Z,31.40
2018-12-06T17:28:50.246Z,32.80
2018-12-06T17:31:18.492Z,39.50
2018-12-06T17:33:47.398Z,31.33
2018-12-06T17:36:15.620Z,29.77
2018-12-06T17:38:46.969Z,38.90
2018-12-06T17:41:15.219Z,33.03
2018-12-06T17:43:43.704Z,29.00
2018-12-06T17:46:12.012Z,32.37
2018-12-06T17:48:40.298Z,34.57
2018-12-06T17:51:08.876Z,32.10
2018-12-06T17:53:37.224Z,29.37
2018-12-06T17:56:05.562Z,29.60
2018-12-06T17:58:34.592Z,28.70
2018-12-06T18:01:03.054Z,36.20
2018-12-06T18:03:31.614Z,28.80
2018-12-06T18:06:01.373Z,32.20
2018-12-06T18:08:30.219Z,27.70
2018-12-06T18:11:01.167Z,27.33
2018-12-06T18:13:29.638Z,29.10
2018-12-06T18:15:58.119Z,30.20
2018-12-06T18:18:26.769Z,34.97
2018-12-06T18:20:57.305Z,33.80
2018-12-06T18:23:26.053Z,29.17
2018-12-06T18:25:54.340Z,31.10
2018-12-06T18:28:24.220Z,32.00
2018-12-06T18:30:58.526Z,29.83
2018-12-06T18:33:27.623Z,30.50
2018-12-06T18:35:59.590Z,34.70
2018-12-06T18:38:28.135Z,31.30
2018-12-06T18:40:56.331Z,37.37
2018-12-06T18:43:25.631Z,29.63
2018-12-06T18:45:54.034Z,30.37
2018-12-06T18:48:22.315Z,29.33
2018-12-06T18:50:50.584Z,32.63
2018-12-06T18:53:18.850Z,29.10
2018-12-06T18:55:48.099Z,35.40
2018-12-06T18:58:16.387Z,31.40
2018-12-06T19:00:44.632Z,30.13
2018-12-06T19:03:12.920Z,28.83
2018-12-06T19:05:41.478Z,32.67
2018-12-06T19:08:10.577Z,29.57
2018-12-06T19:10:38.883Z,29.83
2018-12-06T19:13:07.389Z,35.93
2018-12-06T19:15:35.668Z,31.40
2018-12-06T19:18:04.026Z,30.17
2018-12-06T19:20:32.418Z,27.53
2018-12-06T19:23:00.763Z,32.97
2018-12-06T19:25:29.091Z,31.07
2018-12-06T19:27:57.385Z,33.00
2018-12-06T19:30:25.961Z,30.67
2018-12-06T19:32:57.885Z,30.57
2018-12-06T19:35:24.644Z,33.20
2018-12-06T19:37:53.033Z,31.60
2018-12-06T19:40:21.252Z,29.40
2018-12-06T19:42:49.479Z,35.23
2018-12-06T19:45:17.661Z,28.63
2018-12-06T19:47:46.000Z,27.97
2018-12-06T19:50:14.362Z,27.67
2018-12-06T19:52:42.542Z,27.60
2018-12-06T19:55:10.950Z,29.50
2018-12-06T19:57:39.174Z,30.93
2018-12-06T20:00:08.505Z,24.07
2018-12-06T20:02:37.123Z,26.53
2018-12-06T20:05:06.016Z,30.60
2018-12-06T20:07:34.329Z,30.30
2018-12-06T20:10:02.728Z,26.10
2018-12-06T20:12:31.098Z,31.13
2018-12-06T20:14:59.382Z,26.50
2018-12-06T20:17:27.691Z,26.13
2018-12-06T20:19:56.092Z,27.80
2018-12-06T20:22:24.418Z,30.00
2018-12-06T20:24:52.786Z,36.60
2018-12-06T20:27:21.100Z,32.30
2018-12-06T20:29:49.424Z,32.07
2018-12-06T20:32:17.755Z,27.63
2018-12-06T20:34:46.724Z,29.30
2018-12-06T20:37:15.256Z,29.03
2018-12-06T20:39:43.520Z,33.70
2018-12-06T20:42:11.807Z,34.87
2018-12-06T20:44:41.151Z,36.17
2018-12-06T20:47:11.550Z,36.60
2018-12-06T20:49:39.946Z,36.10
2018-12-06T20:52:08.578Z,40.23
2018-12-06T20:54:36.842Z,42.37
2018-12-06T20:57:05.203Z,41.33
2018-12-06T20:59:33.584Z,41.53
2018-12-06T21:02:01.939Z,41.87
2018-12-06T21:04:30.632Z,44.60
2018-12-06T21:06:59.152Z,44.03
2018-12-06T21:09:27.656Z,42.90
2018-12-06T21:11:55.901Z,50.83
2018-12-06T21:14:24.261Z,39.53
2018-12-06T21:16:52.732Z,40.40
2018-12-06T21:19:21.108Z,37.97
2018-12-06T21:21:49.750Z,34.60
2018-12-06T21:24:18.091Z,36.07
2018-12-06T21:26:46.445Z,38.47
2018-12-06T21:29:14.714Z,40.27
2018-12-06T21:31:43.070Z,39.47
2018-12-06T21:34:11.489Z,35.93
2018-12-06T21:36:40.437Z,35.00
2018-12-06T21:39:09.637Z,36.10
2018-12-06T21:41:38.132Z,36.03
2018-12-06T21:44:06.321Z,33.53
2018-12-06T21:46:34.621Z,32.77
2018-12-06T21:49:03.543Z,33.10
2018-12-06T21:51:31.871Z,31.47
2018-12-06T21:54:00.117Z,33.53
2018-12-06T21:56:28.425Z,37.20
2018-12-06T21:58:56.626Z,42.00
2018-12-06T22:01:25.182Z,37.77
2018-12-06T22:03:53.394Z,35.33
2018-12-06T22:06:21.674Z,34.77
2018-12-06T22:08:49.994Z,36.67
2018-12-06T22:11:18.209Z,39.67
2018-12-06T22:13:46.599Z,38.13
2018-12-06T22:16:14.881Z,36.87
2018-12-06T22:18:43.170Z,40.03
2018-12-06T22:21:11.441Z,37.13
2018-12-06T22:23:39.728Z,37.20
2018-12-06T22:26:08.150Z,34.17
2018-12-06T22:28:36.376Z,35.87
2018-12-06T22:31:04.768Z,33.97
2018-12-06T22:33:33.050Z,39.57
2018-12-06T22:36:01.354Z,37.37
2018-12-06T22:38:34.183Z,35.00
2018-12-06T22:40:59.994Z,33.90
2018-12-06T22:43:28.270Z,32.97
2018-12-06T22:46:00.096Z,36.63
2018-12-06T22:48:28.468Z,34.37
2018-12-06T22:50:56.820Z,32.03
2018-12-06T22:53:25.106Z,28.53
2018-12-06T22:55:53.455Z,34.97
2018-12-06T22:58:21.780Z,27.30
2018-12-06T23:00:53.574Z,30.20
2018-12-06T23:03:23.046Z,28.50
2018-12-06T23:05:52.640Z,25.70
2018-12-06T23:08:21.002Z,29.47
2018-12-06T23:10:49.329Z,23.57
2018-12-06T23:13:17.567Z,23.10
2018-12-06T23:15:45.979Z,30.23
2018-12-06T23:18:14.221Z,26.10
2018-12-06T23:20:42.469Z,25.10
2018-12-06T23:23:11.042Z,23.23
2018-12-06T23:25:39.256Z,24.90
2018-12-06T23:28:07.604Z,20.27
2018-12-06T23:30:36.124Z,23.03
2018-12-06T23:33:04.442Z,22.63
2018-12-06T23:35:32.765Z,28.97
2018-12-06T23:38:01.002Z,24.30
2018-12-06T23:40:29.184Z,22.90
2018-12-06T23:42:57.395Z,23.50
2018-12-06T23:45:25.699Z,23.63
2018-12-06T23:47:54.054Z,22.27
2018-12-06T23:50:22.278Z,22.23
2018-12-06T23:52:50.470Z,20.23
2018-12-06T23:55:18.889Z,23.60
2018-12-06T23:57:47.210Z,20.73
